createdAt,value
2017-10-16T00:00:45.188Z,101578.59
2017-10-16T00:03:13.855Z,101574.45
2017-10-16T00:05:42.481Z,101572.33
2017-10-16T00:08:11.111Z,101570.28
2017-10-16T00:10:39.785Z,101574.23
2017-10-16T00:13:08.443Z,101569.15
2017-10-16T00:15:37.087Z,101564.06
2017-10-16T00:18:05.746Z,101566.68
2017-10-16T00:20:34.221Z,101578.38
2017-10-16T00:23:02.855Z,101567.33
2017-10-16T00:25:31.524Z,101569.11
2017-10-16T00:28:00.191Z,101570.03
2017-10-16T00:30:28.837Z,101573.52
2017-10-16T00:32:57.584Z,101567.56
2017-10-16T00:35:26.201Z,101572.45
2017-10-16T00:37:54.839Z,101566.05
2017-10-16T00:40:23.519Z,101567.03
2017-10-16T00:42:52.131Z,101564.88
2017-10-16T00:45:20.646Z,101562.41
2017-10-16T00:47:49.256Z,101561.19
2017-10-16T00:50:17.870Z,101565.59
2017-10-16T00:52:46.525Z,101557.09
2017-10-16T00:55:15.200Z,101556.30
2017-10-16T00:57:43.851Z,101561.11
2017-10-16T01:00:12.534Z,101560.28
2017-10-16T01:02:41.217Z,101561.99
2017-10-16T01:05:09.840Z,101561.20
2017-10-16T01:07:38.474Z,101555.27
2017-10-16T01:10:07.158Z,101553.19
2017-10-16T01:12:35.808Z,101554.44
2017-10-16T01:15:04.490Z,101551.48
2017-10-16T01:17:36.223Z,101550.68
2017-10-16T01:20:04.585Z,101551.94
2017-10-16T01:22:33.301Z,101549.42
2017-10-16T01:25:01.660Z,101543.47
2017-10-16T01:27:34.890Z,101543.09
2017-10-16T01:30:03.274Z,101537.52
2017-10-16T01:32:31.649Z,101539.30
2017-10-16T01:34:59.850Z,101534.18
2017-10-16T01:37:28.555Z,101538.92
2017-10-16T01:39:57.115Z,101536.77
2017-10-16T01:42:25.427Z,101538.92
2017-10-16T01:44:53.789Z,101540.33
2017-10-16T01:47:22.102Z,101537.74
2017-10-16T01:49:50.548Z,101534.37
2017-10-16T01:52:19.213Z,101542.98
2017-10-16T01:54:47.923Z,101539.48
2017-10-16T01:57:16.288Z,101540.39
2017-10-16T01:59:44.595Z,101538.31
2017-10-16T02:02:13.251Z,101540.47
2017-10-16T02:04:41.755Z,101535.77
2017-10-16T02:07:10.444Z,101535.39
2017-10-16T02:09:39.079Z,101533.68
2017-10-16T02:12:07.760Z,101530.27
2017-10-16T02:14:36.387Z,101533.27
2017-10-16T02:17:05.088Z,101528.59
2017-10-16T02:19:33.714Z,101527.30
2017-10-16T02:22:02.386Z,101522.56
2017-10-16T02:24:30.907Z,101520.41
2017-10-16T02:26:59.584Z,101523.86
2017-10-16T02:29:28.211Z,101522.20
2017-10-16T02:31:56.868Z,101522.31
2017-10-16T02:34:25.482Z,101521.13
2017-10-16T02:36:54.157Z,101521.09
2017-10-16T02:39:22.775Z,101522.38
2017-10-16T02:41:51.439Z,101517.75
2017-10-16T02:44:20.048Z,101519.49
2017-10-16T02:46:48.666Z,101519.53
2017-10-16T02:49:17.321Z,101526.85
2017-10-16T02:51:45.795Z,101516.61
2017-10-16T02:54:14.311Z,101518.78
2017-10-16T02:56:42.920Z,101519.27
2017-10-16T02:59:11.608Z,101517.18
2017-10-16T03:01:40.236Z,101523.66
2017-10-16T03:04:08.892Z,101521.05
2017-10-16T03:06:37.519Z,101516.42
2017-10-16T03:09:05.722Z,101511.68
2017-10-16T03:11:34.236Z,101514.75
2017-10-16T03:14:02.778Z,101508.72
2017-10-16T03:16:31.242Z,101510.05
2017-10-16T03:18:59.899Z,101514.33
2017-10-16T03:21:28.519Z,101509.70
2017-10-16T03:23:57.133Z,101503.71
2017-10-16T03:26:25.780Z,101512.31
2017-10-16T03:28:54.443Z,101513.12
2017-10-16T03:31:23.106Z,101510.58
2017-10-16T03:33:51.759Z,101516.19
2017-10-16T03:36:22.086Z,101513.57
2017-10-16T03:38:50.587Z,101512.73
2017-10-16T03:41:19.323Z,101511.03
2017-10-16T03:43:47.983Z,101515.39
2017-10-16T03:46:16.588Z,101513.23
2017-10-16T03:48:45.288Z,101519.37
2017-10-16T03:51:13.907Z,101521.53
2017-10-16T03:53:42.570Z,101514.67
2017-10-16T03:56:11.186Z,101516.86
2017-10-16T03:58:39.826Z,101519.97
2017-10-16T04:01:08.515Z,101523.00
2017-10-16T04:03:37.122Z,101521.30
2017-10-16T04:06:05.793Z,101518.75
2017-10-16T04:08:34.464Z,101517.05
2017-10-16T04:11:03.083Z,101520.05
2017-10-16T04:13:31.741Z,101523.52
2017-10-16T04:16:00.411Z,101527.39
2017-10-16T04:18:29.078Z,101523.95
2017-10-16T04:20:57.699Z,101527.88
2017-10-16T04:23:26.303Z,101532.63
2017-10-16T04:25:54.955Z,101530.50
2017-10-16T04:28:23.595Z,101533.50
2017-10-16T04:30:52.255Z,101530.50
2017-10-16T04:33:20.890Z,101524.05
2017-10-16T04:35:49.572Z,101527.47
2017-10-16T04:38:18.187Z,101521.94
2017-10-16T04:40:46.798Z,101525.00
2017-10-16T04:43:15.470Z,101526.70
2017-10-16T04:45:44.128Z,101520.34
2017-10-16T04:48:12.755Z,101527.27
2017-10-16T04:50:41.414Z,101534.52
2017-10-16T04:53:10.033Z,101532.42
2017-10-16T04:55:38.647Z,101539.25
2017-10-16T04:58:07.317Z,101543.57
2017-10-16T05:00:35.938Z,101538.03
2017-10-16T05:03:04.599Z,101540.61
2017-10-16T05:05:33.222Z,101535.53
2017-10-16T05:08:01.848Z,101535.56
2017-10-16T05:10:30.510Z,101530.38
2017-10-16T05:12:59.126Z,101523.12
2017-10-16T05:15:27.782Z,101525.33
2017-10-16T05:17:56.464Z,101530.52
2017-10-16T05:20:25.142Z,101527.94
2017-10-16T05:22:53.765Z,101529.27
2017-10-16T05:25:22.434Z,101536.16
2017-10-16T05:27:51.047Z,101543.44
2017-10-16T05:30:19.721Z,101543.44
2017-10-16T05:32:48.352Z,101545.60
2017-10-16T05:35:16.979Z,101546.86
2017-10-16T05:37:45.639Z,101545.15
2017-10-16T05:40:14.253Z,101546.02
2017-10-16T05:42:42.862Z,101544.73
2017-10-16T05:45:11.176Z,101547.73
2017-10-16T05:47:39.872Z,101542.15
2017-10-16T05:50:08.511Z,101536.99
2017-10-16T05:52:37.181Z,101543.44
2017-10-16T05:55:05.856Z,101542.19
2017-10-16T05:57:34.956Z,101545.56
2017-10-16T06:00:03.644Z,101543.55
2017-10-16T06:02:32.491Z,101542.64
2017-10-16T06:05:00.970Z,101536.61
2017-10-16T06:07:29.162Z,101538.36
2017-10-16T06:09:57.484Z,101538.39
2017-10-16T06:12:26.173Z,101539.69
2017-10-16T06:14:54.643Z,101543.97
2017-10-16T06:17:23.174Z,101547.38
2017-10-16T06:19:51.816Z,101542.64
2017-10-16T06:22:20.483Z,101547.34
2017-10-16T06:24:49.155Z,101544.73
2017-10-16T06:27:17.799Z,101546.02
2017-10-16T06:29:46.496Z,101546.86
2017-10-16T06:32:14.850Z,101546.02
2017-10-16T06:34:43.501Z,101549.47
2017-10-16T06:37:12.197Z,101540.83
2017-10-16T06:39:40.805Z,101553.71
2017-10-16T06:42:09.498Z,101558.83
2017-10-16T06:44:38.155Z,101561.34
2017-10-16T06:47:06.519Z,101558.73
2017-10-16T06:49:35.142Z,101562.98
2017-10-16T06:52:03.674Z,101568.89
2017-10-16T06:54:32.339Z,101552.48
2017-10-16T06:57:00.948Z,101559.27
2017-10-16T06:59:29.598Z,101563.45
2017-10-16T07:01:58.259Z,101563.80
2017-10-16T07:04:26.918Z,101562.89
2017-10-16T07:06:55.563Z,101555.16
2017-10-16T07:09:24.214Z,101561.49
2017-10-16T07:11:52.901Z,101561.95
2017-10-16T07:14:21.535Z,101567.87
2017-10-16T07:16:50.159Z,101567.38
2017-10-16T07:19:18.831Z,101570.30
2017-10-16T07:21:47.829Z,101568.06
2017-10-16T07:24:16.507Z,101563.70
2017-10-16T07:26:45.148Z,101567.42
2017-10-16T07:29:13.849Z,101572.06
2017-10-16T07:31:42.510Z,101565.95
2017-10-16T07:34:11.150Z,101571.42
2017-10-16T07:36:39.828Z,101572.59
2017-10-16T07:39:08.463Z,101576.73
2017-10-16T07:41:36.935Z,101580.11
2017-10-16T07:44:05.607Z,101572.67
2017-10-16T07:46:34.107Z,101583.72
2017-10-16T07:49:02.719Z,101587.41
2017-10-16T07:51:31.402Z,101581.75
2017-10-16T07:54:00.016Z,101581.19
2017-10-16T07:56:28.678Z,101581.00
2017-10-16T07:58:57.382Z,101575.77
2017-10-16T08:01:25.999Z,101577.43
2017-10-16T08:03:54.662Z,101580.73
2017-10-16T08:06:23.275Z,101581.45
2017-10-16T08:08:51.944Z,101595.08
2017-10-16T08:11:20.626Z,101596.70
2017-10-16T08:13:49.283Z,101595.72
2017-10-16T08:16:17.906Z,101598.16
2017-10-16T08:18:46.565Z,101599.30
2017-10-16T08:21:15.179Z,101602.63
2017-10-16T08:23:43.854Z,101604.64
2017-10-16T08:26:12.168Z,101601.45
2017-10-16T08:28:40.529Z,101603.47
2017-10-16T08:31:08.862Z,101605.51
2017-10-16T08:33:37.208Z,101607.06
2017-10-16T08:36:05.859Z,101601.29
2017-10-16T08:38:34.559Z,101605.92
2017-10-16T08:41:03.220Z,101607.05
2017-10-16T08:43:31.934Z,101603.03
2017-10-16T08:46:00.649Z,101602.87
2017-10-16T08:48:29.010Z,101607.08
2017-10-16T08:50:57.667Z,101606.92
2017-10-16T08:53:26.370Z,101611.89
2017-10-16T08:55:54.665Z,101602.32
2017-10-16T08:58:23.370Z,101603.45
2017-10-16T09:00:51.744Z,101609.25
2017-10-16T09:03:19.911Z,101609.14
2017-10-16T09:05:48.427Z,101609.02
2017-10-16T09:08:16.796Z,101612.69
2017-10-16T09:10:45.507Z,101612.56
2017-10-16T09:13:14.174Z,101608.53
2017-10-16T09:15:42.503Z,101609.24
2017-10-16T09:18:10.848Z,101609.50
2017-10-16T09:20:39.148Z,101612.38
2017-10-16T09:23:07.838Z,101604.91
2017-10-16T09:25:36.500Z,101615.09
2017-10-16T09:28:04.879Z,101613.67
2017-10-16T09:30:33.190Z,101619.93
2017-10-16T09:33:01.566Z,101622.77
2017-10-16T09:35:29.944Z,101627.31
2017-10-16T09:37:58.657Z,101624.15
2017-10-16T09:40:27.053Z,101622.73
2017-10-16T09:42:55.413Z,101624.27
2017-10-16T09:45:23.735Z,101619.77
2017-10-16T09:47:52.418Z,101623.52
2017-10-16T09:50:20.732Z,101632.78
2017-10-16T09:52:49.107Z,101633.45
2017-10-16T09:55:17.779Z,101628.98
2017-10-16T09:57:46.495Z,101627.90
2017-10-16T10:00:14.819Z,101623.85
2017-10-16T10:02:43.346Z,101623.59
2017-10-16T10:05:11.566Z,101621.67
2017-10-16T10:07:39.889Z,101620.16
2017-10-16T10:10:08.611Z,101623.41
2017-10-16T10:12:36.925Z,101631.84
2017-10-16T10:15:05.567Z,101630.75
2017-10-16T10:17:37.563Z,101627.15
2017-10-16T10:20:06.267Z,101626.94
2017-10-16T10:22:34.773Z,101627.18
2017-10-16T10:25:03.306Z,101621.78
2017-10-16T10:27:33.654Z,101618.60
2017-10-16T10:30:02.319Z,101629.98
2017-10-16T10:32:30.958Z,101633.23
2017-10-16T10:34:59.618Z,101637.77
2017-10-16T10:37:28.996Z,101633.29
2017-10-16T10:39:57.860Z,101639.50
2017-10-16T10:42:26.481Z,101635.48
2017-10-16T10:44:55.151Z,101634.88
2017-10-16T10:47:23.835Z,101639.04
2017-10-16T10:49:52.549Z,101633.69
2017-10-16T10:52:21.169Z,101634.80
2017-10-16T10:54:49.803Z,101636.78
2017-10-16T10:57:18.504Z,101637.86
2017-10-16T10:59:47.160Z,101644.12
2017-10-16T11:02:15.826Z,101642.22
2017-10-16T11:04:44.453Z,101636.34
2017-10-16T11:07:13.097Z,101644.82
2017-10-16T11:09:41.863Z,101640.74
2017-10-16T11:12:10.499Z,101645.70
2017-10-16T11:14:38.854Z,101646.40
2017-10-16T11:17:07.181Z,101650.00
2017-10-16T11:19:35.502Z,101644.17
2017-10-16T11:22:03.858Z,101645.29
2017-10-16T11:24:32.165Z,101648.10
2017-10-16T11:27:00.520Z,101642.28
2017-10-16T11:29:29.603Z,101648.16
2017-10-16T11:31:58.270Z,101640.23
2017-10-16T11:34:26.945Z,101643.94
2017-10-16T11:36:55.613Z,101642.45
2017-10-16T11:39:23.929Z,101639.77
2017-10-16T11:41:52.631Z,101640.82
2017-10-16T11:44:21.368Z,101638.04
2017-10-16T11:46:50.271Z,101630.03
2017-10-16T11:49:18.604Z,101637.61
2017-10-16T11:51:47.288Z,101631.82
2017-10-16T11:54:15.987Z,101627.28
2017-10-16T11:56:44.333Z,101629.69
2017-10-16T11:59:13.026Z,101622.95
2017-10-16T12:01:41.403Z,101626.22
2017-10-16T12:04:09.831Z,101619.08
2017-10-16T12:06:38.155Z,101616.64
2017-10-16T12:09:06.591Z,101621.74
2017-10-16T12:11:35.089Z,101618.49
2017-10-16T12:14:03.479Z,101623.52
2017-10-16T12:16:31.599Z,101622.40
2017-10-16T12:18:59.699Z,101625.22
2017-10-16T12:21:28.062Z,101626.36
2017-10-16T12:23:56.379Z,101623.56
2017-10-16T12:26:24.820Z,101620.36
2017-10-16T12:28:53.114Z,101625.77
2017-10-16T12:31:21.767Z,101627.42
2017-10-16T12:33:50.198Z,101630.23
2017-10-16T12:36:18.567Z,101626.11
2017-10-16T12:38:46.983Z,101628.55
2017-10-16T12:41:15.310Z,101624.95
2017-10-16T12:43:43.686Z,101625.23
2017-10-16T12:46:12.805Z,101625.03
2017-10-16T12:48:41.443Z,101622.70
2017-10-16T12:51:09.839Z,101618.64
2017-10-16T12:53:38.155Z,101622.39
2017-10-16T12:56:06.528Z,101626.50
2017-10-16T12:58:34.702Z,101633.63
2017-10-16T13:01:03.109Z,101632.69
2017-10-16T13:03:31.629Z,101625.11
2017-10-16T13:06:00.071Z,101616.70
2017-10-16T13:08:28.394Z,101622.98
2017-10-16T13:10:56.782Z,101615.45
2017-10-16T13:13:25.165Z,101613.17
2017-10-16T13:15:53.326Z,101612.14
2017-10-16T13:18:21.539Z,101607.20
2017-10-16T13:20:49.935Z,101612.70
2017-10-16T13:23:18.325Z,101607.71
2017-10-16T13:25:46.558Z,101603.30
2017-10-16T13:28:14.765Z,101603.55
2017-10-16T13:30:42.977Z,101599.52
2017-10-16T13:33:11.211Z,101597.19
2017-10-16T13:35:39.592Z,101596.52
2017-10-16T13:38:08.019Z,101600.63
2017-10-16T13:40:36.273Z,101594.94
2017-10-16T13:43:04.669Z,101589.13
2017-10-16T13:45:33.346Z,101592.81
2017-10-16T13:48:01.510Z,101587.05
2017-10-16T13:50:29.878Z,101576.44
2017-10-16T13:52:58.282Z,101575.91
2017-10-16T13:55:26.419Z,101570.96
2017-10-16T13:57:54.519Z,101575.02
2017-10-16T14:00:22.947Z,101571.02
2017-10-16T14:02:51.272Z,101569.59
2017-10-16T14:05:19.652Z,101575.51
2017-10-16T14:07:47.795Z,101569.79
2017-10-16T14:10:16.115Z,101575.30
2017-10-16T14:12:44.583Z,101568.64
2017-10-16T14:15:12.962Z,101575.45
2017-10-16T14:17:41.341Z,101564.09
2017-10-16T14:20:09.676Z,101566.95
2017-10-16T14:22:38.071Z,101565.19
2017-10-16T14:25:06.462Z,101570.17
2017-10-16T14:27:35.647Z,101570.53
2017-10-16T14:30:03.983Z,101576.52
2017-10-16T14:32:32.695Z,101575.16
2017-10-16T14:35:01.074Z,101573.84
2017-10-16T14:37:33.897Z,101564.29
2017-10-16T14:40:02.648Z,101564.11
2017-10-16T14:42:30.993Z,101559.27
2017-10-16T14:44:59.398Z,101565.25
2017-10-16T14:47:27.826Z,101563.12
2017-10-16T14:49:56.219Z,101557.45
2017-10-16T14:52:24.587Z,101551.36
2017-10-16T14:54:52.953Z,101550.78
2017-10-16T14:57:21.271Z,101552.91
2017-10-16T14:59:49.651Z,101552.50
2017-10-16T15:02:23.502Z,101554.22
2017-10-16T15:04:51.875Z,101551.62
2017-10-16T15:07:20.227Z,101546.47
2017-10-16T15:09:48.437Z,101544.75
2017-10-16T15:12:17.005Z,101543.97
2017-10-16T15:14:45.301Z,101542.31
2017-10-16T15:17:13.655Z,101544.55
2017-10-16T15:19:41.974Z,101544.61
2017-10-16T15:22:10.406Z,101539.51
2017-10-16T15:24:38.772Z,101539.56
2017-10-16T15:27:07.126Z,101539.22
2017-10-16T15:29:35.549Z,101535.37
2017-10-16T15:32:03.908Z,101542.81
2017-10-16T15:34:32.246Z,101539.44
2017-10-16T15:37:00.487Z,101547.29
2017-10-16T15:39:29.158Z,101541.37
2017-10-16T15:41:57.574Z,101541.06
2017-10-16T15:44:25.994Z,101537.28
2017-10-16T15:46:54.391Z,101544.00
2017-10-16T15:49:22.321Z,101539.42
2017-10-16T15:51:50.497Z,101530.17
2017-10-16T15:54:18.871Z,101533.32
2017-10-16T15:56:47.230Z,101532.28
2017-10-16T15:59:15.579Z,101532.96
2017-10-16T16:01:44.005Z,101534.44
2017-10-16T16:04:12.349Z,101535.53
2017-10-16T16:06:40.722Z,101535.74
2017-10-16T16:09:08.955Z,101537.25
2017-10-16T16:11:37.166Z,101535.82
2017-10-16T16:14:05.340Z,101536.49
2017-10-16T16:16:33.807Z,101535.04
2017-10-16T16:19:01.998Z,101544.83
2017-10-16T16:21:30.387Z,101550.66
2017-10-16T16:23:58.777Z,101544.39
2017-10-16T16:26:27.129Z,101546.00
2017-10-16T16:28:55.538Z,101547.97
2017-10-16T16:31:23.874Z,101553.80
2017-10-16T16:33:52.557Z,101555.36
2017-10-16T16:36:20.940Z,101556.91
2017-10-16T16:38:49.272Z,101555.87
2017-10-16T16:41:17.403Z,101550.89
2017-10-16T16:43:46.071Z,101552.44
2017-10-16T16:46:14.441Z,101547.00
2017-10-16T16:48:43.078Z,101551.52
2017-10-16T16:51:11.767Z,101545.27
2017-10-16T16:53:40.083Z,101550.20
2017-10-16T16:56:08.426Z,101549.95
2017-10-16T16:58:37.159Z,101551.81
2017-10-16T17:01:05.714Z,101553.26
2017-10-16T17:03:34.243Z,101555.17
2017-10-16T17:06:02.796Z,101556.58
2017-10-16T17:08:31.285Z,101554.66
2017-10-16T17:10:59.821Z,101539.70
2017-10-16T17:13:28.472Z,101541.14
2017-10-16T17:15:57.147Z,101543.90
2017-10-16T17:18:25.800Z,101546.69
2017-10-16T17:20:54.503Z,101545.54
2017-10-16T17:23:23.127Z,101546.62
2017-10-16T17:25:51.858Z,101546.83
2017-10-16T17:28:20.521Z,101546.23
2017-10-16T17:30:49.173Z,101550.80
2017-10-16T17:33:17.958Z,101550.62
2017-10-16T17:35:46.602Z,101557.28
2017-10-16T17:38:15.265Z,101556.23
2017-10-16T17:40:43.960Z,101553.00
2017-10-16T17:43:12.660Z,101548.93
2017-10-16T17:45:41.306Z,101554.33
2017-10-16T17:48:10.015Z,101557.11
2017-10-16T17:50:38.655Z,101546.61
2017-10-16T17:53:07.331Z,101547.64
2017-10-16T17:55:36.019Z,101541.40
2017-10-16T17:58:04.653Z,101540.30
2017-10-16T18:00:33.018Z,101536.61
2017-10-16T18:03:01.694Z,101535.55
2017-10-16T18:05:30.391Z,101542.22
2017-10-16T18:07:59.076Z,101541.06
2017-10-16T18:10:27.698Z,101541.17
2017-10-16T18:12:56.382Z,101543.89
2017-10-16T18:15:24.696Z,101541.86
2017-10-16T18:17:53.377Z,101542.97
2017-10-16T18:20:21.999Z,101543.08
2017-10-16T18:22:50.698Z,101544.52
2017-10-16T18:25:19.364Z,101546.41
2017-10-16T18:27:48.031Z,101540.07
2017-10-16T18:30:16.587Z,101534.56
2017-10-16T18:32:45.262Z,101537.63
2017-10-16T18:35:13.942Z,101530.38
2017-10-16T18:37:42.268Z,101525.70
2017-10-16T18:40:10.906Z,101521.91
2017-10-16T18:42:39.600Z,101519.36
2017-10-16T18:45:07.903Z,101518.57
2017-10-16T18:47:36.931Z,101516.91
2017-10-16T18:50:05.606Z,101511.36
2017-10-16T18:52:34.277Z,101517.41
2017-10-16T18:55:02.592Z,101513.58
2017-10-16T18:57:31.269Z,101510.16
2017-10-16T18:59:59.962Z,101505.86
2017-10-16T19:02:28.499Z,101500.27
2017-10-16T19:04:57.153Z,101505.49
2017-10-16T19:07:25.865Z,101506.84
2017-10-16T19:09:54.195Z,101510.81
2017-10-16T19:12:22.623Z,101497.86
2017-10-16T19:14:50.942Z,101505.68
2017-10-16T19:17:19.321Z,101499.20
2017-10-16T19:19:47.495Z,101504.38
2017-10-16T19:22:15.906Z,101500.96
2017-10-16T19:24:44.272Z,101500.17
2017-10-16T19:27:12.491Z,101506.23
2017-10-16T19:29:40.866Z,101506.70
2017-10-16T19:32:09.240Z,101508.45
2017-10-16T19:34:37.575Z,101504.15
2017-10-16T19:37:05.923Z,101505.95
2017-10-16T19:39:34.315Z,101500.77
2017-10-16T19:42:02.678Z,101496.05
2017-10-16T19:44:31.003Z,101496.52
2017-10-16T19:46:59.346Z,101495.22
2017-10-16T19:49:27.561Z,101492.27
2017-10-16T19:51:55.873Z,101494.03
2017-10-16T19:54:24.247Z,101501.34
2017-10-16T19:56:52.571Z,101492.32
2017-10-16T19:59:20.950Z,101489.78
2017-10-16T20:01:49.287Z,101494.95
2017-10-16T20:04:17.709Z,101491.13
2017-10-16T20:06:46.399Z,101498.47
2017-10-16T20:09:14.831Z,101501.89
2017-10-16T20:11:43.133Z,101500.19
2017-10-16T20:14:11.514Z,101498.05
2017-10-16T20:16:39.831Z,101500.23
2017-10-16T20:19:08.154Z,101501.57
2017-10-16T20:21:36.520Z,101495.56
2017-10-16T20:24:04.903Z,101497.73
2017-10-16T20:26:33.250Z,101501.20
2017-10-16T20:29:01.626Z,101492.59
2017-10-16T20:31:29.832Z,101494.36
2017-10-16T20:33:58.208Z,101490.14
2017-10-16T20:36:26.391Z,101487.97
2017-10-16T20:38:54.788Z,101485.84
2017-10-16T20:41:23.582Z,101471.69
2017-10-16T20:43:51.939Z,101476.41
2017-10-16T20:46:20.310Z,101481.17
2017-10-16T20:48:48.649Z,101481.63
2017-10-16T20:51:16.962Z,101476.50
2017-10-16T20:53:45.322Z,101482.98
2017-10-16T20:56:13.664Z,101489.00
2017-10-16T20:58:42.442Z,101482.11
2017-10-16T21:01:10.754Z,101484.28
2017-10-16T21:03:39.115Z,101485.16
2017-10-16T21:06:07.434Z,101475.31
2017-10-16T21:08:35.819Z,101474.90
2017-10-16T21:11:04.004Z,101476.67
2017-10-16T21:13:32.225Z,101481.43
2017-10-16T21:16:00.579Z,101488.32
2017-10-16T21:18:28.894Z,101483.19
2017-10-16T21:20:57.239Z,101481.94
2017-10-16T21:23:25.609Z,101484.98
2017-10-16T21:25:53.917Z,101478.97
2017-10-16T21:28:22.616Z,101483.73
2017-10-16T21:30:51.322Z,101481.20
2017-10-16T21:33:19.643Z,101482.07
2017-10-16T21:35:48.231Z,101474.35
2017-10-16T21:38:16.586Z,101476.98
2017-10-16T21:40:44.882Z,101474.81
2017-10-16T21:43:13.253Z,101468.80
2017-10-16T21:45:41.579Z,101461.45
2017-10-16T21:48:09.958Z,101467.14
2017-10-16T21:50:38.281Z,101464.14
2017-10-16T21:53:06.634Z,101468.45
2017-10-16T21:55:34.821Z,101469.37
2017-10-16T21:58:03.390Z,101471.54
2017-10-16T22:00:32.052Z,101468.16
2017-10-16T22:03:00.403Z,101477.22
2017-10-16T22:05:29.121Z,101478.56
2017-10-16T22:07:57.463Z,101485.08
2017-10-16T22:10:25.784Z,101482.13
2017-10-16T22:12:54.205Z,101482.13
2017-10-16T22:15:22.534Z,101482.21
2017-10-16T22:17:50.907Z,101481.84
2017-10-16T22:20:19.238Z,101476.34
2017-10-16T22:22:47.619Z,101477.22
2017-10-16T22:25:15.954Z,101480.31
2017-10-16T22:27:44.272Z,101473.90
2017-10-16T22:30:12.967Z,101467.47
2017-10-16T22:32:41.287Z,101469.27
2017-10-16T22:35:09.641Z,101467.56
2017-10-16T22:37:41.938Z,101464.60
2017-10-16T22:40:10.251Z,101469.41
2017-10-16T22:42:38.573Z,101470.33
2017-10-16T22:45:07.083Z,101469.12
2017-10-16T22:47:39.421Z,101471.39
2017-10-16T22:50:07.789Z,101469.67
2017-10-16T22:52:36.108Z,101461.09
2017-10-16T22:55:04.208Z,101464.19
2017-10-16T22:57:37.096Z,101463.40
2017-10-16T23:00:05.729Z,101462.19
2017-10-16T23:02:34.077Z,101467.83
2017-10-16T23:05:02.370Z,101463.16
2017-10-16T23:07:33.210Z,101457.61
2017-10-16T23:10:01.567Z,101462.83
2017-10-16T23:12:29.896Z,101463.80
2017-10-16T23:14:58.260Z,101469.44
2017-10-16T23:17:26.577Z,101466.07
2017-10-16T23:19:54.761Z,101474.30
2017-10-16T23:22:22.842Z,101481.18
2017-10-16T23:24:51.146Z,101476.09
2017-10-16T23:27:19.557Z,101479.19
2017-10-16T23:29:48.187Z,101478.39
2017-10-16T23:32:16.542Z,101472.39
2017-10-16T23:34:44.834Z,101474.14
2017-10-16T23:37:12.992Z,101479.82
2017-10-16T23:39:41.238Z,101476.48
2017-10-16T23:42:09.753Z,101479.53
2017-10-16T23:44:38.105Z,101480.93
2017-10-16T23:47:06.768Z,101483.98
2017-10-16T23:49:35.126Z,101481.02
2017-10-16T23:52:03.478Z,101480.19
2017-10-16T23:54:31.845Z,101475.93
2017-10-16T23:57:00.171Z,101477.22
2017-10-16T23:59:28.677Z,101474.27
